Time;durP1;ratioP1;P1;durP2;ratioP2;P2;SDS_P1;SDS_P2;PMS_P1;PMS_P2;Temp;Humidity;BMP_temperature;BMP_pressure;BME280_temperature;BME280_humidity;BME280_pressure;Samples;Min_cycle;Max_cycle;Signal;HPM_P1;HPM_P2
2022/12/01 00:00:01;;;;;;;38.40;21.60;;;;;;;2.89;74.33;101532.66;126915;1295;98665;-83
2022/12/01 00:03:32;;;;;;;35.50;19.10;;;;;;;2.88;74.31;101534.63;126839;1296;110049;-80
2022/12/01 00:06:36;;;;;;;32.10;18.30;;;;;;;2.91;74.28;101533.94;126936;1294;107384;-81
2022/12/01 00:13:02;;;;;;;39.50;20.60;;;;;;;2.99;74.37;101536.23;127052;1295;107092;-81
2022/12/01 00:16:13;;;;;;;34.10;19.80;;;;;;;3.05;74.45;101536.98;126981;1294;107545;-82
2022/12/01 00:19:16;;;;;;;37.40;21.10;;;;;;;3.08;74.32;101536.83;126865;1296;107691;-80
2022/12/01 00:22:19;;;;;;;35.00;21.20;;;;;;;3.08;74.52;101537.54;126837;1292;98065;-83
2022/12/01 00:25:24;;;;;;;35.90;21.30;;;;;;;3.08;74.41;101537.91;127020;1295;98751;-82
2022/12/01 00:28:27;;;;;;;38.40;21.60;;;;;;;3.06;74.49;101538.19;126841;1294;106513;-83
2022/12/01 00:31:32;;;;;;;34.00;19.70;;;;;;;3.02;74.38;101536.77;127104;1279;99035;-82
2022/12/01 00:34:36;;;;;;;35.30;20.20;;;;;;;2.98;74.44;101536.95;126872;1296;107327;-82
2022/12/01 00:37:40;;;;;;;35.20;20.80;;;;;;;2.95;74.70;101535.35;126877;1288;107312;-83
2022/12/01 00:40:42;;;;;;;35.70;19.90;;;;;;;2.92;74.61;101534.79;127065;1294;107121;-83
2022/12/01 00:43:45;;;;;;;35.80;21.10;;;;;;;2.88;74.49;101531.13;127238;1286;98738;-83
2022/12/01 00:46:48;;;;;;;35.30;20.70;;;;;;;2.85;74.61;101529.31;127233;1285;98559;-83
2022/12/01 00:49:51;;;;;;;39.10;21.60;;;;;;;2.83;74.76;101529.23;127118;1296;99173;-82
2022/12/01 00:52:53;;;;;;;37.00;20.00;;;;;;;2.81;74.89;101528.98;127207;1282;98509;-82
2022/12/01 00:55:56;;;;;;;28.30;16.60;;;;;;;2.83;74.85;101523.43;127195;1285;98135;-83
2022/12/01 00:58:59;;;;;;;34.50;18.90;;;;;;;2.87;74.95;101519.05;127247;1264;98060;-82
2022/12/01 01:02:01;;;;;;;32.30;19.30;;;;;;;2.92;74.90;101517.40;126826;1292;98071;-83
2022/12/01 01:05:05;;;;;;;30.20;18.40;;;;;;;2.97;74.91;101515.93;127159;1292;98764;-83
2022/12/01 01:08:09;;;;;;;31.30;18.50;;;;;;;2.98;74.68;101516.77;127220;1301;99026;-82
2022/12/01 01:11:12;;;;;;;30.50;18.40;;;;;;;2.98;74.94;101514.65;127138;1287;97997;-83
2022/12/01 01:14:15;;;;;;;30.80;17.90;;;;;;;2.97;74.96;101518.39;127268;1292;98082;-82
2022/12/01 01:17:18;;;;;;;31.50;18.90;;;;;;;2.96;74.93;101515.63;127128;1287;98558;-83
2022/12/01 01:20:21;;;;;;;32.80;18.70;;;;;;;2.94;74.90;101517.98;127184;1293;99160;-82
2022/12/01 01:23:24;;;;;;;30.30;18.20;;;;;;;2.94;75.02;101514.30;127092;1286;206855;-82
2022/12/01 01:26:29;;;;;;;31.20;18.00;;;;;;;2.92;74.91;101511.27;127241;1285;99129;-83
2022/12/01 01:29:32;;;;;;;35.00;18.40;;;;;;;2.89;75.23;101510.67;127203;1296;101369;-82
2022/12/01 01:32:35;;;;;;;34.40;19.10;;;;;;;2.88;75.26;101508.47;127163;1294;102027;-82
2022/12/01 01:35:37;;;;;;;35.30;16.70;;;;;;;2.85;75.26;101508.05;127051;1295;98135;-82
2022/12/01 01:38:40;;;;;;;33.00;17.70;;;;;;;2.84;75.21;101512.68;126921;1295;99160;-82
2022/12/01 01:41:43;;;;;;;27.00;15.40;;;;;;;2.86;75.43;101507.67;126905;1296;99240;-81
2022/12/01 01:44:52;;;;;;;29.50;16.70;;;;;;;2.91;75.45;101513.05;126945;1296;98410;-84
2022/12/01 01:47:58;;;;;;;28.30;16.30;;;;;;;2.94;75.40;101510.42;127145;1294;99159;-83
2022/12/01 01:51:02;;;;;;;30.80;17.70;;;;;;;2.99;75.37;101512.48;127026;1295;98036;-81
2022/12/01 01:54:14;;;;;;;31.10;18.40;;;;;;;3.01;75.51;101509.09;127243;1299;99129;-82
2022/12/01 01:57:28;;;;;;;30.80;17.20;;;;;;;3.01;75.35;101506.78;127208;1292;98006;-81
2022/12/01 02:00:31;;;;;;;30.90;17.80;;;;;;;2.99;75.40;101502.64;127070;1295;99035;-81
2022/12/01 02:03:37;;;;;;;29.50;17.60;;;;;;;2.97;75.56;101504.15;126938;1289;98044;-80
2022/12/01 02:06:40;;;;;;;31.10;16.50;;;;;;;2.96;75.55;101501.38;127019;1293;99179;-82
2022/12/01 02:09:42;;;;;;;27.70;16.60;;;;;;;2.94;75.52;101498.51;126941;1295;98403;-82
2022/12/01 02:12:58;;;;;;;24.70;15.60;;;;;;;2.91;75.54;101496.17;127050;1296;99064;-82
2022/12/01 02:16:08;;;;;;;27.80;16.10;;;;;;;2.89;75.62;101501.01;127087;1286;98083;-82
2022/12/01 02:19:39;;;;;;;27.70;15.40;;;;;;;2.89;75.76;101498.23;126905;1299;99266;-82
2022/12/01 02:22:58;;;;;;;26.50;14.50;;;;;;;2.89;75.82;101500.16;126946;1286;99511;-82
2022/12/01 02:26:20;;;;;;;22.30;13.10;;;;;;;2.89;75.72;101500.48;126876;1288;99208;-83
2022/12/01 02:30:15;;;;;;;25.00;14.90;;;;;;;2.92;75.81;101502.63;126941;1296;98394;-83
2022/12/01 02:33:23;;;;;;;22.60;13.50;;;;;;;2.94;76.03;101496.20;126942;1295;98020;-83
2022/12/01 02:36:32;;;;;;;23.70;14.70;;;;;;;2.97;75.95;101493.09;127017;1296;97972;-83
2022/12/01 02:39:40;;;;;;;24.30;14.40;;;;;;;2.99;75.89;101492.30;127302;1296;97995;-83
2022/12/01 02:42:52;;;;;;;24.50;14.40;;;;;;;2.98;75.91;101489.68;126960;1293;97976;-83
2022/12/01 02:45:59;;;;;;;25.80;14.90;;;;;;;2.97;75.97;101486.94;127091;1293;98065;-82
2022/12/01 02:49:07;;;;;;;23.20;14.10;;;;;;;2.94;75.94;101486.02;127082;1292;98815;-84
2022/12/01 02:52:13;;;;;;;25.70;15.20;;;;;;;2.90;76.02;101486.38;127009;1296;99156;-84
2022/12/01 02:55:15;;;;;;;25.60;15.30;;;;;;;2.88;76.06;101486.48;127066;1295;99055;-84
2022/12/01 02:58:18;;;;;;;25.10;14.90;;;;;;;2.86;76.16;101488.34;126949;1279;98066;-83
2022/12/01 03:01:38;;;;;;;25.50;14.60;;;;;;;2.81;76.30;101487.52;126946;1275;99148;-83
2022/12/01 03:04:51;;;;;;;26.00;15.40;;;;;;;2.82;76.33;101486.79;126888;1295;99072;-83
2022/12/01 03:08:00;;;;;;;22.00;14.10;;;;;;;2.85;76.32;101483.48;126916;1299;98765;-82
2022/12/01 03:11:03;;;;;;;22.10;13.60;;;;;;;2.89;76.34;101485.20;127216;1296;98006;-77
2022/12/01 03:14:19;;;;;;;23.00;14.00;;;;;;;2.93;76.55;101484.10;127306;1279;98486;-82
2022/12/01 03:17:28;;;;;;;25.10;16.20;;;;;;;2.97;76.44;101476.91;127068;1291;98794;-79
2022/12/01 03:20:37;;;;;;;24.60;14.30;;;;;;;2.99;76.39;101477.36;127096;1296;99126;-79
2022/12/01 03:23:43;;;;;;;25.90;16.20;;;;;;;2.98;76.31;101477.53;126907;1288;97975;-79
2022/12/01 03:26:50;;;;;;;24.60;15.40;;;;;;;2.98;76.50;101478.95;126841;1288;98405;-78
2022/12/01 03:29:56;;;;;;;24.10;14.70;;;;;;;2.98;76.58;101477.73;127034;1301;99131;-81
2022/12/01 03:33:07;;;;;;;22.20;13.70;;;;;;;2.94;76.39;101477.38;126756;1295;98047;-78
2022/12/01 03:36:14;;;;;;;22.80;13.90;;;;;;;2.91;76.71;101476.84;126877;1296;99164;-77
2022/12/01 03:39:20;;;;;;;25.60;16.00;;;;;;;2.87;76.77;101480.35;126789;1295;99049;-75
2022/12/01 03:42:26;;;;;;;23.80;14.70;;;;;;;2.84;76.86;101480.89;126708;1294;97990;-78
2022/12/01 03:45:35;;;;;;;25.30;14.80;;;;;;;2.80;76.89;101474.39;126828;1289;98004;-82
2022/12/01 03:48:39;;;;;;;20.40;11.40;;;;;;;2.80;76.93;101478.98;126971;1288;98003;-80
2022/12/01 03:51:54;;;;;;;22.20;13.40;;;;;;;2.83;76.96;101478.64;126975;1287;99199;-81
2022/12/01 03:55:08;;;;;;;24.40;14.70;;;;;;;2.88;76.89;101476.45;126977;1288;98728;-82
2022/12/01 03:58:16;;;;;;;21.50;13.90;;;;;;;2.92;76.85;101476.27;126885;1296;99152;-82
2022/12/01 04:01:21;;;;;;;23.40;14.50;;;;;;;2.92;77.00;101475.92;126785;1293;97994;-80
2022/12/01 04:04:23;;;;;;;24.10;14.20;;;;;;;2.91;77.08;101478.77;126931;1289;98374;-80
2022/12/01 04:07:26;;;;;;;21.70;13.00;;;;;;;2.87;76.97;101475.08;127364;1294;98644;-80
2022/12/01 04:10:29;;;;;;;22.30;14.50;;;;;;;2.85;76.95;101477.80;127003;1281;98026;-80
2022/12/01 04:13:31;;;;;;;21.60;13.70;;;;;;;2.83;77.28;101477.74;127098;1278;99134;-82
2022/12/01 04:16:34;;;;;;;24.80;14.30;;;;;;;2.81;77.23;101477.69;126992;1275;97998;-82
2022/12/01 04:19:37;;;;;;;24.20;14.70;;;;;;;2.78;77.12;101476.60;126781;1271;99176;-82
2022/12/01 04:22:40;;;;;;;33.40;18.50;;;;;;;2.77;77.29;101477.50;126777;1295;99157;-80
2022/12/01 04:25:42;;;;;;;27.00;16.30;;;;;;;2.79;77.47;101476.54;126972;1294;99253;-81
2022/12/01 04:28:46;;;;;;;28.30;17.00;;;;;;;2.83;77.48;101476.52;126859;1288;98754;-81
2022/12/01 04:31:49;;;;;;;25.80;14.80;;;;;;;2.88;77.56;101478.73;126767;1294;98075;-80
2022/12/01 04:34:52;;;;;;;27.60;15.80;;;;;;;2.92;77.25;101482.43;126688;1281;99276;-82
2022/12/01 04:37:54;;;;;;;25.20;15.40;;;;;;;2.93;77.43;101483.42;126865;1280;98073;-82
2022/12/01 04:40:57;;;;;;;22.30;13.50;;;;;;;2.94;77.46;101483.72;126994;1295;99154;-82
2022/12/01 04:44:00;;;;;;;20.30;13.00;;;;;;;2.92;77.25;101485.39;127073;1285;99170;-82
2022/12/01 04:47:02;;;;;;;22.00;13.90;;;;;;;2.89;77.40;101486.79;127158;1291;98015;-82
2022/12/01 04:50:07;;;;;;;21.50;13.10;;;;;;;2.87;77.42;101489.34;127007;1285;99045;-82
2022/12/01 04:53:09;;;;;;;23.90;14.40;;;;;;;2.86;77.41;101492.56;127020;1299;97999;-82
2022/12/01 04:56:12;;;;;;;22.60;13.40;;;;;;;2.86;77.55;101493.62;127180;1279;98738;-82
2022/12/01 04:59:15;;;;;;;23.10;14.10;;;;;;;2.82;77.50;101490.80;127099;1285;99264;-82
2022/12/01 05:02:17;;;;;;;19.40;12.10;;;;;;;2.81;77.74;101495.76;127130;1285;98033;-83
2022/12/01 05:05:20;;;;;;;21.90;13.50;;;;;;;2.84;77.55;101493.87;127349;1285;98060;-82
2022/12/01 05:08:23;;;;;;;23.20;13.90;;;;;;;2.88;77.63;101497.23;127594;1268;98076;-82
2022/12/01 05:11:30;;;;;;;24.70;15.30;;;;;;;2.88;77.48;101497.68;127479;1276;98193;-81
2022/12/01 05:14:33;;;;;;;22.40;13.70;;;;;;;2.90;77.55;101492.20;127578;1299;98341;-81
2022/12/01 05:17:35;;;;;;;23.30;14.00;;;;;;;2.89;77.48;101486.92;127806;1294;99143;-81
2022/12/01 05:20:56;;;;;;;22.80;14.30;;;;;;;2.88;77.66;101491.75;127683;1295;98059;-81
2022/12/01 05:23:59;;;;;;;23.90;14.70;;;;;;;2.86;77.61;101492.04;127949;1296;97977;-82
2022/12/01 05:27:01;;;;;;;24.70;15.20;;;;;;;2.81;77.58;101491.75;128271;1283;97956;-82
2022/12/01 05:30:06;;;;;;;25.00;15.00;;;;;;;2.78;77.72;101492.58;127963;1293;99134;-82
2022/12/01 05:33:09;;;;;;;26.70;15.10;;;;;;;2.74;77.72;101495.20;127453;1287;97983;-81
2022/12/01 05:36:12;;;;;;;28.00;14.90;;;;;;;2.72;77.78;101498.29;127956;1285;98095;-82
2022/12/01 05:39:15;;;;;;;22.40;13.10;;;;;;;2.74;77.71;101496.27;127792;1292;99575;-82
2022/12/01 05:42:20;;;;;;;24.70;14.30;;;;;;;2.78;77.88;101498.38;128118;1288;98518;-81
2022/12/01 05:45:23;;;;;;;22.90;14.10;;;;;;;2.80;77.82;101503.90;127995;1286;99166;-81
2022/12/01 05:48:26;;;;;;;22.20;13.90;;;;;;;2.82;77.79;101500.14;127461;1277;97993;-80
2022/12/01 05:51:29;;;;;;;24.40;14.40;;;;;;;2.83;77.85;101499.56;127128;1296;98002;-80
2022/12/01 05:54:33;;;;;;;23.20;13.90;;;;;;;2.81;77.91;101498.95;127463;1286;98082;-83
2022/12/01 05:57:36;;;;;;;24.20;15.40;;;;;;;2.78;77.72;101499.46;126719;1285;98013;-85
2022/12/01 06:00:39;;;;;;;26.40;15.70;;;;;;;2.73;77.97;101492.08;127012;1286;99076;-85
2022/12/01 06:03:41;;;;;;;23.80;14.70;;;;;;;2.72;78.04;101492.14;126725;1278;99017;-84
2022/12/01 06:06:44;;;;;;;24.60;15.20;;;;;;;2.69;78.02;101492.27;126737;1279;98024;-84
2022/12/01 06:09:46;;;;;;;27.70;15.20;;;;;;;2.65;78.10;101491.23;126854;1290;98749;-85
2022/12/01 06:12:49;;;;;;;26.40;14.40;;;;;;;2.61;78.08;101494.05;127022;1288;97983;-85
2022/12/01 06:16:01;;;;;;;21.10;11.90;;;;;;;2.61;78.00;101492.34;126996;1289;99163;-86
2022/12/01 06:19:04;;;;;;;23.00;13.70;;;;;;;2.61;78.08;101493.70;126870;1295;98013;-85
2022/12/01 06:22:07;;;;;;;23.70;14.20;;;;;;;2.65;78.15;101496.16;126710;1296;98014;-85
2022/12/01 06:25:10;;;;;;;22.60;13.80;;;;;;;2.68;78.17;101490.42;126856;1299;99147;-86
2022/12/01 06:28:13;;;;;;;24.80;15.50;;;;;;;2.68;78.14;101497.59;127043;1287;98067;-85
2022/12/01 06:31:15;;;;;;;26.00;15.60;;;;;;;2.66;78.02;101500.16;126897;1293;98074;-82
2022/12/01 06:34:18;;;;;;;24.80;14.90;;;;;;;2.63;78.04;101500.29;127059;1287;99128;-81
2022/12/01 06:37:21;;;;;;;25.50;15.30;;;;;;;2.63;78.22;101503.64;127613;1279;98704;-81
2022/12/01 06:40:23;;;;;;;30.50;17.80;;;;;;;2.60;78.19;101506.61;127230;1276;99125;-82
2022/12/01 06:43:26;;;;;;;26.10;15.60;;;;;;;2.55;78.22;101510.69;128013;1279;98764;-81
2022/12/01 06:46:29;;;;;;;45.50;26.10;;;;;;;2.54;78.18;101511.77;127794;1273;99012;-81
2022/12/01 06:49:31;;;;;;;27.30;15.50;;;;;;;2.57;78.28;101512.36;127006;1285;111178;-79
2022/12/01 06:52:34;;;;;;;24.50;14.10;;;;;;;2.61;78.32;101511.31;127688;1296;99191;-80
2022/12/01 06:55:38;;;;;;;25.60;15.50;;;;;;;2.66;78.43;101514.20;128040;1279;98664;-79
2022/12/01 06:58:40;;;;;;;24.70;15.60;;;;;;;2.73;78.36;101513.38;127971;1296;110274;-79
2022/12/01 07:01:43;;;;;;;26.00;16.50;;;;;;;2.75;78.34;101511.16;127735;1296;98084;-82
2022/12/01 07:04:46;;;;;;;24.60;16.10;;;;;;;2.78;78.37;101511.02;127930;1293;97984;-79
2022/12/01 07:07:48;;;;;;;23.20;15.20;;;;;;;2.79;78.11;101512.56;127973;1278;98701;-79
2022/12/01 07:10:58;;;;;;;23.20;15.40;;;;;;;2.80;78.25;101513.39;127818;1294;98026;-79
2022/12/01 07:14:00;;;;;;;24.50;15.80;;;;;;;2.80;78.20;101513.02;127672;1295;111255;-79
2022/12/01 07:17:03;;;;;;;23.60;14.80;;;;;;;2.80;78.25;101512.70;127274;1285;97973;-80
2022/12/01 07:20:09;;;;;;;23.80;15.50;;;;;;;2.79;78.18;101513.44;127251;1285;99137;-80
2022/12/01 07:23:12;;;;;;;26.40;16.10;;;;;;;2.80;78.34;101516.77;128331;1294;111605;-79
2022/12/01 07:26:16;;;;;;;24.90;14.60;;;;;;;2.83;78.19;101520.13;128203;1284;98003;-79
2022/12/01 07:29:19;;;;;;;19.30;12.20;;;;;;;2.86;78.33;101518.73;128440;1292;111243;-79
2022/12/01 07:32:22;;;;;;;22.80;13.80;;;;;;;2.91;78.23;101522.02;128347;1293;98065;-79
2022/12/01 07:35:25;;;;;;;22.60;14.50;;;;;;;2.95;78.19;101521.28;128447;1296;99265;-79
2022/12/01 07:38:28;;;;;;;23.40;14.50;;;;;;;3.00;78.24;101523.19;128421;1291;98000;-78
2022/12/01 07:41:31;;;;;;;22.50;13.90;;;;;;;3.02;78.00;101522.53;128434;1295;110975;-79
2022/12/01 07:44:34;;;;;;;21.60;14.40;;;;;;;3.04;78.00;101522.48;128320;1296;98067;-78
2022/12/01 07:47:37;;;;;;;22.80;15.00;;;;;;;3.05;78.08;101521.84;128288;1294;111152;-79
2022/12/01 07:50:40;;;;;;;24.10;15.40;;;;;;;3.08;78.13;101522.63;128192;1299;98149;-79
2022/12/01 07:53:43;;;;;;;25.00;16.10;;;;;;;3.10;78.13;101519.51;128288;1273;97959;-80
2022/12/01 07:56:46;;;;;;;23.40;15.30;;;;;;;3.11;78.01;101518.09;128206;1285;99023;-79
2022/12/01 07:59:49;;;;;;;23.90;16.00;;;;;;;3.12;78.06;101520.63;128302;1285;98049;-79
2022/12/01 08:02:51;;;;;;;24.50;15.60;;;;;;;3.14;78.12;101522.67;128160;1296;99182;-79
2022/12/01 08:05:57;;;;;;;24.30;15.10;;;;;;;3.18;78.19;101522.35;128199;1279;98061;-79
2022/12/01 08:09:00;;;;;;;19.30;12.30;;;;;;;3.25;77.96;101526.57;128589;1294;111323;-79
2022/12/01 08:12:03;;;;;;;24.00;14.10;;;;;;;3.33;77.99;101521.22;128225;1280;98057;-79
2022/12/01 08:15:07;;;;;;;20.10;12.90;;;;;;;3.40;77.73;101522.66;128072;1273;97998;-78
2022/12/01 08:18:10;;;;;;;21.80;13.60;;;;;;;3.44;77.76;101524.02;127282;1286;110304;-81
2022/12/01 08:21:15;;;;;;;23.40;15.00;;;;;;;3.48;77.72;101528.22;128310;1279;98253;-81
2022/12/01 08:24:18;;;;;;;22.70;15.00;;;;;;;3.52;77.78;101529.77;128498;1291;112490;-82
2022/12/01 08:27:21;;;;;;;31.00;18.60;;;;;;;3.55;77.66;101532.11;128404;1275;99173;-81
2022/12/01 08:30:23;;;;;;;27.00;16.50;;;;;;;3.57;77.76;101533.41;128445;1289;98508;-80
2022/12/01 08:33:28;;;;;;;24.80;15.20;;;;;;;3.53;77.63;101531.33;128123;1288;98066;-81
2022/12/01 08:36:31;;;;;;;22.60;14.20;;;;;;;3.52;77.79;101523.78;128194;1296;111236;-78
2022/12/01 08:39:33;;;;;;;24.90;15.30;;;;;;;3.56;77.86;101529.09;128283;1303;111161;-79
2022/12/01 08:42:36;;;;;;;24.40;14.80;;;;;;;3.57;77.58;101531.31;128100;1273;97970;-77
2022/12/01 08:45:39;;;;;;;23.80;15.40;;;;;;;3.55;77.63;101533.67;127867;1294;98613;-78
2022/12/01 08:48:41;;;;;;;23.70;14.30;;;;;;;3.55;77.59;101536.69;127958;1292;97955;-78
2022/12/01 08:51:44;;;;;;;21.70;13.90;;;;;;;3.59;77.70;101536.69;127752;1272;99172;-77
2022/12/01 08:54:47;;;;;;;25.30;15.00;;;;;;;3.63;77.65;101536.45;127787;1298;98105;-78
2022/12/01 08:57:50;;;;;;;23.90;15.60;;;;;;;3.66;77.62;101540.19;127807;1271;98870;-78
2022/12/01 09:00:53;;;;;;;21.90;14.50;;;;;;;3.66;77.56;101540.88;127816;1295;98062;-77
2022/12/01 09:04:07;;;;;;;23.20;15.40;;;;;;;3.66;77.55;101536.66;127799;1287;98767;-77
2022/12/01 09:07:10;;;;;;;23.30;14.80;;;;;;;3.67;77.44;101534.67;127806;1294;111245;-78
2022/12/01 09:10:13;;;;;;;23.80;15.20;;;;;;;3.70;77.47;101536.64;127689;1295;111250;-77
2022/12/01 09:13:15;;;;;;;24.00;16.00;;;;;;;3.68;77.33;101539.38;127624;1272;99134;-78
2022/12/01 09:16:18;;;;;;;26.30;16.40;;;;;;;3.67;77.28;101541.02;127741;1272;98024;-78
2022/12/01 09:19:21;;;;;;;27.40;16.60;;;;;;;3.65;77.44;101536.36;127636;1281;99050;-77
2022/12/01 09:22:23;;;;;;;26.80;17.10;;;;;;;3.66;77.50;101535.27;127581;1295;98026;-78
2022/12/01 09:25:26;;;;;;;27.00;17.20;;;;;;;3.67;77.51;101527.99;127615;1287;97987;-78
2022/12/01 09:28:29;;;;;;;23.80;15.50;;;;;;;3.67;77.59;101523.21;127894;1298;99244;-82
2022/12/01 09:31:32;;;;;;;26.80;15.70;;;;;;;3.63;77.43;101523.27;128101;1296;107199;-82
2022/12/01 09:34:34;;;;;;;24.10;14.60;;;;;;;3.61;77.47;101525.27;128320;1288;98722;-79
2022/12/01 09:37:37;;;;;;;22.50;13.30;;;;;;;3.61;77.58;101523.71;128193;1296;98396;-79
2022/12/01 09:40:41;;;;;;;23.50;14.40;;;;;;;3.65;77.66;101522.80;128071;1296;98666;-79
2022/12/01 09:43:48;;;;;;;23.30;15.00;;;;;;;3.71;77.49;101521.43;128207;1296;107598;-79
2022/12/01 09:46:55;;;;;;;23.60;15.00;;;;;;;3.76;77.45;101522.45;128135;1298;107379;-78
2022/12/01 09:50:01;;;;;;;23.70;15.10;;;;;;;3.75;77.47;101523.19;128231;1301;107556;-79
2022/12/01 09:53:07;;;;;;;25.70;15.50;;;;;;;3.71;77.27;101518.45;128059;1298;107533;-79
2022/12/01 09:56:21;;;;;;;26.40;14.90;;;;;;;3.65;77.29;101520.54;128171;1280;107533;-79
2022/12/01 09:59:30;;;;;;;22.90;14.70;;;;;;;3.58;77.43;101515.25;128153;1280;107466;-79
2022/12/01 10:02:36;;;;;;;27.90;17.30;;;;;;;3.53;77.58;101515.84;127897;1287;107577;-79
2022/12/01 10:05:45;;;;;;;32.60;20.10;;;;;;;3.51;77.60;101512.25;127822;1281;107507;-79
2022/12/01 10:08:56;;;;;;;27.90;17.30;;;;;;;3.49;77.69;101507.59;127689;1289;107484;-79
2022/12/01 10:12:05;;;;;;;28.30;16.70;;;;;;;3.46;77.73;101503.85;127071;1294;107494;-80
2022/12/01 10:15:21;;;;;;;27.40;16.50;;;;;;;3.46;77.70;101501.41;126813;1288;107464;-73
2022/12/01 10:18:35;;;;;;;25.10;14.90;;;;;;;3.47;77.70;101500.99;126897;1295;107641;-74
2022/12/01 10:21:56;;;;;;;30.90;19.00;;;;;;;3.56;77.61;101503.04;126927;1294;108646;-74
2022/12/01 10:25:06;;;;;;;27.90;17.50;;;;;;;3.65;77.57;101498.17;126932;1295;107494;-73
2022/12/01 10:28:25;;;;;;;30.20;18.80;;;;;;;3.69;77.39;101495.65;126942;1296;107474;-74
2022/12/01 10:31:40;;;;;;;27.60;17.80;;;;;;;3.74;77.53;101489.98;126955;1295;107595;-74
2022/12/01 10:34:45;;;;;;;29.30;17.50;;;;;;;3.83;77.48;101483.17;126987;1295;107602;-74
2022/12/01 10:37:53;;;;;;;28.10;18.40;;;;;;;3.87;77.46;101475.59;126791;1294;106561;-74
2022/12/01 10:40:59;;;;;;;28.50;18.10;;;;;;;3.88;77.31;101472.89;126913;1291;107600;-74
2022/12/01 10:44:04;;;;;;;30.40;18.90;;;;;;;3.91;77.48;101466.73;126919;1294;108679;-74
2022/12/01 10:47:17;;;;;;;29.90;19.20;;;;;;;3.97;77.55;101465.95;126690;1294;107509;-74
2022/12/01 10:50:26;;;;;;;;;;;;;;;3.91;77.23;101467.79;126682;1286;107485;-74
2022/12/01 10:53:32;;;;;;;34.80;20.20;;;;;;;3.80;77.46;101464.65;126737;1294;107553;-73
2022/12/01 10:56:40;;;;;;;42.10;23.50;;;;;;;3.81;77.51;101462.34;126757;1296;107538;-74
2022/12/01 10:59:51;;;;;;;35.50;20.50;;;;;;;3.78;77.36;101461.95;126710;1295;106374;-75
2022/12/01 11:02:56;;;;;;;31.60;18.50;;;;;;;3.76;77.37;101457.15;126625;1295;108947;-73
2022/12/01 11:06:01;;;;;;;29.70;18.80;;;;;;;3.74;77.41;101453.73;126954;1295;97977;-73
2022/12/01 11:09:07;;;;;;;28.20;17.80;;;;;;;3.75;77.36;101457.88;127026;1293;105308;-73
2022/12/01 11:12:15;;;;;;;27.50;17.80;;;;;;;3.79;77.41;101459.08;127003;1297;107517;-73
2022/12/01 11:15:23;;;;;;;25.00;16.70;;;;;;;3.82;77.35;101459.64;126947;1295;107593;-74
2022/12/01 11:18:32;;;;;;;26.30;17.30;;;;;;;3.83;77.11;101460.10;126840;1286;107495;-74
2022/12/01 11:21:46;;;;;;;24.40;15.90;;;;;;;3.82;77.08;101458.23;126873;1280;107591;-73
2022/12/01 11:24:59;;;;;;;25.90;16.30;;;;;;;3.81;77.21;101460.05;126999;1286;107501;-73
2022/12/01 11:28:04;;;;;;;25.30;15.60;;;;;;;3.78;77.11;101460.20;126788;1287;107682;-72
2022/12/01 11:31:09;;;;;;;24.30;15.50;;;;;;;3.75;77.03;101458.21;126956;1286;107532;-73
2022/12/01 11:34:19;;;;;;;25.80;17.00;;;;;;;3.74;77.14;101456.20;126910;1295;107381;-73
2022/12/01 11:37:27;;;;;;;23.70;15.30;;;;;;;3.74;77.17;101457.02;126724;1289;107562;-73
2022/12/01 11:40:37;;;;;;;21.40;15.00;;;;;;;3.73;76.82;101458.48;126649;1296;108862;-73
2022/12/01 11:43:40;;;;;;;23.20;15.40;;;;;;;3.74;76.85;101457.23;127036;1295;107688;-73
2022/12/01 11:46:44;;;;;;;25.90;16.80;;;;;;;3.72;76.95;101456.43;127021;1295;107474;-73
2022/12/01 11:49:53;;;;;;;24.00;15.60;;;;;;;3.69;76.81;101455.41;127056;1288;108647;-75
2022/12/01 11:52:55;;;;;;;25.80;16.00;;;;;;;3.66;76.90;101453.07;127015;1292;107684;-72
2022/12/01 11:56:17;;;;;;;24.20;15.30;;;;;;;3.68;77.01;101446.83;126838;1297;99166;-73
2022/12/01 11:59:23;;;;;;;22.60;15.10;;;;;;;3.73;76.97;101448.15;126911;1279;107531;-74
2022/12/01 12:02:41;;;;;;;22.20;15.50;;;;;;;3.78;76.86;101444.55;126938;1295;107567;-73
2022/12/01 12:06:08;;;;;;;28.40;18.20;;;;;;;3.81;76.80;101443.13;127007;1294;107530;-73
2022/12/01 12:09:30;;;;;;;28.30;18.40;;;;;;;3.79;76.69;101440.77;126960;1295;107523;-74
2022/12/01 12:12:50;;;;;;;29.90;19.40;;;;;;;3.75;76.62;101441.33;127031;1295;106573;-73
2022/12/01 12:16:04;;;;;;;34.40;20.30;;;;;;;3.72;76.61;101438.48;127029;1291;108749;-73
2022/12/01 12:19:24;;;;;;;31.00;19.60;;;;;;;3.68;76.62;101438.70;126916;1295;107526;-74
2022/12/01 12:22:37;;;;;;;31.30;19.90;;;;;;;3.63;76.62;101437.07;126732;1295;107624;-73
2022/12/01 12:25:53;;;;;;;30.70;19.40;;;;;;;3.59;76.90;101441.28;126929;1295;108775;-73
2022/12/01 12:29:14;;;;;;;32.30;20.80;;;;;;;3.57;76.83;101438.57;127078;1292;107552;-74
2022/12/01 12:32:39;;;;;;;34.20;21.70;;;;;;;3.56;76.86;101440.06;127025;1295;107578;-75
2022/12/01 12:35:50;;;;;;;34.10;21.20;;;;;;;3.49;76.96;101438.10;126996;1295;107671;-73
2022/12/01 12:39:04;;;;;;;33.50;20.80;;;;;;;3.45;77.02;101435.83;126763;1291;106004;-74
2022/12/01 12:42:14;;;;;;;27.80;17.30;;;;;;;3.47;77.08;101435.41;126899;1295;106521;-73
2022/12/01 12:45:24;;;;;;;33.90;20.90;;;;;;;3.51;76.93;101433.44;126758;1296;107575;-74
2022/12/01 12:48:52;;;;;;;30.40;19.00;;;;;;;3.54;77.15;101428.70;126719;1284;107464;-73
2022/12/01 12:52:01;;;;;;;33.00;20.40;;;;;;;3.57;77.16;101432.80;126813;1295;106915;-73
2022/12/01 12:55:13;;;;;;;29.70;17.90;;;;;;;3.56;77.23;101431.45;126816;1295;107577;-73
2022/12/01 12:58:22;;;;;;;30.40;18.80;;;;;;;3.55;77.13;101429.55;126655;1287;107634;-72
2022/12/01 13:01:29;;;;;;;32.70;19.60;;;;;;;3.50;77.18;101428.87;126672;1294;107571;-75
2022/12/01 13:04:39;;;;;;;29.60;19.60;;;;;;;3.47;77.10;101430.30;126619;1295;107525;-73
2022/12/01 13:07:48;;;;;;;32.40;19.30;;;;;;;3.41;77.15;101430.10;126646;1295;108710;-73
2022/12/01 13:10:57;;;;;;;33.30;19.70;;;;;;;3.30;77.12;101428.49;126555;1296;106342;-74
2022/12/01 13:14:05;;;;;;;32.70;20.20;;;;;;;3.22;77.06;101431.04;126707;1296;107533;-74
2022/12/01 13:17:20;;;;;;;79.50;45.00;;;;;;;3.17;77.13;101430.73;126772;1294;107565;-73
2022/12/01 13:20:26;;;;;;;40.80;22.80;;;;;;;3.10;77.14;101428.42;126678;1296;107320;-74
2022/12/01 13:23:30;;;;;;;36.90;21.00;;;;;;;3.07;77.36;101426.32;126584;1292;119974;-73
2022/12/01 13:26:36;;;;;;;33.60;18.40;;;;;;;3.08;77.28;101426.42;127026;1282;107561;-75
2022/12/01 13:29:45;;;;;;;34.90;20.00;;;;;;;3.10;77.43;101430.71;126988;1288;107639;-72
2022/12/01 13:32:56;;;;;;;34.30;19.50;;;;;;;3.12;77.29;101426.24;126818;1288;107717;-74
2022/12/01 13:36:00;;;;;;;33.60;19.60;;;;;;;3.15;77.20;101423.45;126739;1288;107473;-74
2022/12/01 13:39:06;;;;;;;35.70;20.60;;;;;;;3.17;77.12;101424.63;126926;1292;106921;-72
2022/12/01 13:42:21;;;;;;;31.30;19.20;;;;;;;3.12;77.18;101428.49;126798;1287;107395;-74
2022/12/01 13:45:24;;;;;;;34.50;19.50;;;;;;;3.09;77.08;101426.05;126712;1295;107613;-73
2022/12/01 13:48:29;;;;;;;29.90;18.60;;;;;;;3.05;77.12;101425.36;126801;1295;107577;-73
2022/12/01 13:52:04;;;;;;;32.00;19.00;;;;;;;3.02;77.15;101423.23;126840;1295;107590;-73
2022/12/01 13:55:28;;;;;;;34.80;21.40;;;;;;;2.98;77.16;101421.11;127060;1295;107446;-73
2022/12/01 13:58:46;;;;;;;36.80;22.50;;;;;;;2.98;77.42;101425.91;127016;1295;107514;-74
2022/12/01 14:02:05;;;;;;;38.90;22.00;;;;;;;2.97;77.50;101429.29;126809;1295;107369;-73
2022/12/01 14:05:43;;;;;;;40.60;21.90;;;;;;;2.99;77.39;101433.90;126691;1295;107565;-71
2022/12/01 14:08:48;;;;;;;35.20;18.60;;;;;;;3.02;77.53;101438.52;126828;1291;107385;-73